Time;durP1;ratioP1;P1;durP2;ratioP2;P2;SDS_P1;SDS_P2;PMS_P1;PMS_P2;Temp;Humidity;BMP_temperature;BMP_pressure;BME280_temperature;BME280_humidity;BME280_pressure;Samples;Min_cycle;Max_cycle;Signal;HPM_P1;HPM_P2
2022/12/15 00:43:10;;;;;;;96.27;52.27;;;-4.40;99.90;;;;;;10329989;28;20247;-85
2022/12/15 00:48:19;;;;;;;89.87;49.27;;;-4.40;99.90;;;;;;10312187;28;20253;-85
2022/12/15 01:20:17;;;;;;;105.43;56.53;;;-4.90;99.90;;;;;;10331802;28;20225;-85
2022/12/15 01:25:22;;;;;;;123.20;61.73;;;-4.70;99.90;;;;;;10292061;28;20260;-85
2022/12/15 01:30:26;;;;;;;113.07;60.20;;;-4.80;99.90;;;;;;10330754;28;20640;-85
2022/12/15 01:35:28;;;;;;;108.73;58.53;;;-5.00;99.90;;;;;;10329853;28;20310;-85
2022/12/15 01:40:45;;;;;;;102.70;55.03;;;-5.00;99.90;;;;;;10329957;28;20289;-85
2022/12/15 01:46:04;;;;;;;101.07;54.77;;;-5.10;99.90;;;;;;10320324;28;20311;-85
2022/12/15 01:51:15;;;;;;;116.60;60.93;;;-4.80;99.90;;;;;;10321156;28;20740;-84
2022/12/15 01:56:18;;;;;;;107.90;57.83;;;-4.80;99.90;;;;;;10322993;28;20249;-85
2022/12/15 02:01:21;;;;;;;108.57;57.87;;;-4.90;99.90;;;;;;10319361;28;20260;-85
2022/12/15 02:06:25;;;;;;;104.30;59.43;;;-5.00;99.90;;;;;;10303042;28;20300;-85
2022/12/15 02:11:48;;;;;;;90.90;49.27;;;-5.20;99.90;;;;;;10320820;28;20285;-86
2022/12/15 02:17:24;;;;;;;96.13;53.97;;;-5.20;99.90;;;;;;10319482;28;20242;-85
2022/12/15 02:22:46;;;;;;;99.33;54.37;;;-5.30;99.90;;;;;;10318383;28;20234;-85
2022/12/15 02:28:08;;;;;;;101.87;55.20;;;-5.20;99.90;;;;;;10301400;28;20348;-85
2022/12/15 02:33:26;;;;;;;100.80;55.17;;;-5.50;99.90;;;;;;10319353;28;20234;-84
2022/12/15 02:38:33;;;;;;;100.80;54.03;;;-5.50;99.90;;;;;;10319765;28;20262;-86
2022/12/15 02:43:37;;;;;;;96.20;53.10;;;-5.60;99.90;;;;;;10319038;28;20293;-85
2022/12/15 02:49:22;;;;;;;99.87;54.07;;;-6.00;99.90;;;;;;10305705;28;20249;-85
2022/12/15 02:54:31;;;;;;;98.63;53.30;;;-6.10;99.90;;;;;;10310256;28;20231;-85
2022/12/15 02:59:42;;;;;;;99.20;56.63;;;-5.60;99.90;;;;;;10320391;28;20237;-85
2022/12/15 03:04:45;;;;;;;99.57;55.00;;;-5.80;99.90;;;;;;10318512;28;20331;-86
2022/12/15 03:09:48;;;;;;;93.63;52.70;;;-5.80;99.90;;;;;;10314241;28;20263;-85
2022/12/15 03:14:50;;;;;;;98.47;52.43;;;-5.90;99.90;;;;;;10316598;28;20238;-85
2022/12/15 03:19:53;;;;;;;89.93;51.33;;;-6.10;99.90;;;;;;10315102;28;20249;-85
2022/12/15 03:24:56;;;;;;;92.53;51.60;;;-6.20;99.90;;;;;;10319159;28;20280;-85
2022/12/15 03:29:59;;;;;;;102.23;54.00;;;-6.20;99.90;;;;;;10315358;28;20714;-85
2022/12/15 03:35:01;;;;;;;100.70;55.00;;;-6.30;99.90;;;;;;10317507;28;20231;-85
2022/12/15 03:40:05;;;;;;;100.70;54.50;;;-6.60;99.90;;;;;;10304974;28;20257;-85
2022/12/15 03:45:08;;;;;;;101.80;56.83;;;-6.50;99.90;;;;;;10299120;28;20235;-85
2022/12/15 03:50:12;;;;;;;96.00;56.10;;;-6.70;99.90;;;;;;10305344;28;20296;-85
2022/12/15 03:55:14;;;;;;;98.57;54.87;;;-6.70;99.90;;;;;;10314487;28;20231;-85
2022/12/15 04:00:19;;;;;;;93.60;53.67;;;-6.30;99.90;;;;;;10316015;28;20288;-85
2022/12/15 04:05:27;;;;;;;103.17;55.57;;;-5.80;99.90;;;;;;10297915;28;20260;-85
2022/12/15 04:10:31;;;;;;;107.60;55.70;;;-6.10;99.90;;;;;;10316835;28;20363;-85
2022/12/15 04:15:38;;;;;;;103.60;56.30;;;-6.10;99.90;;;;;;10315785;28;20274;-85
2022/12/15 04:20:44;;;;;;;102.07;55.60;;;-6.60;99.90;;;;;;10301258;28;20373;-87
2022/12/15 05:35:25;;;;;;;133.30;69.80;;;-5.30;99.90;;;;;;10320790;28;20698;-85
2022/12/15 05:40:27;;;;;;;119.73;64.73;;;-5.80;99.90;;;;;;10321114;28;20687;-85
2022/12/15 05:45:30;;;;;;;109.90;61.87;;;-5.20;99.90;;;;;;10320770;28;20701;-85
2022/12/15 05:50:32;;;;;;;122.20;67.37;;;-3.70;99.90;;;;;;10318002;28;20326;-85
2022/12/15 05:55:35;;;;;;;84.67;46.43;;;-3.40;99.90;;;;;;10320425;28;20688;-85
2022/12/15 06:00:37;;;;;;;106.17;43.43;;;-2.10;99.90;;;;;;10320283;28;20235;-84
2022/12/15 06:05:40;;;;;;;152.37;74.97;;;1.50;95.20;;;;;;10304783;28;20327;-84
2022/12/15 06:10:43;;;;;;;170.37;82.57;;;3.00;65.10;;;;;;10320629;28;20248;-84
2022/12/15 06:15:55;;;;;;;148.03;78.03;;;-0.80;60.60;;;;;;10318921;28;20306;-86
2022/12/15 06:21:00;;;;;;;160.10;78.67;;;-2.70;81.20;;;;;;10318394;28;20275;-84
2022/12/15 06:26:24;;;;;;;153.53;78.57;;;-4.10;92.30;;;;;;10302009;28;21011;-85
2022/12/15 06:31:27;;;;;;;148.67;77.73;;;-4.80;94.50;;;;;;10302550;28;20741;-85
2022/12/15 06:36:29;;;;;;;140.80;75.10;;;-5.70;99.90;;;;;;10323163;28;20215;-85
2022/12/15 06:41:32;;;;;;;155.67;76.80;;;-5.50;99.90;;;;;;10330201;28;20207;-84
2022/12/15 06:46:35;;;;;;;154.93;79.70;;;-5.80;99.90;;;;;;10328121;28;20329;-84
2022/12/15 06:51:37;;;;;;;155.27;82.37;;;-6.10;99.90;;;;;;10327312;28;20227;-85
2022/12/15 06:56:40;;;;;;;164.00;87.17;;;-6.60;99.90;;;;;;10309460;28;20539;-85
2022/12/15 07:01:42;;;;;;;188.50;97.00;;;-6.70;99.90;;;;;;10312858;28;20667;-85
2022/12/15 07:06:45;;;;;;;183.30;91.07;;;-6.80;99.90;;;;;;10306394;28;20721;-85
2022/12/15 07:11:50;;;;;;;134.00;68.77;;;-6.80;99.90;;;;;;10305455;28;20234;-86
2022/12/15 07:16:52;;;;;;;242.03;124.20;;;-6.40;99.90;;;;;;10312695;28;20230;-85
2022/12/15 07:21:56;;;;;;;229.90;126.27;;;-2.40;99.30;;;;;;10315613;28;20237;-84
2022/12/15 07:26:58;;;;;;;221.37;118.30;;;-3.10;99.00;;;;;;10292287;28;20298;-85
2022/12/15 07:32:01;;;;;;;213.60;111.73;;;-3.80;99.40;;;;;;10310917;28;20226;-85
2022/12/15 07:37:03;;;;;;;141.17;78.73;;;-4.20;99.90;;;;;;10301671;28;20289;-85
2022/12/15 07:42:06;;;;;;;173.30;90.90;;;-3.00;99.90;;;;;;10318739;28;20625;-85
2022/12/15 07:47:08;;;;;;;158.07;81.07;;;-1.40;99.90;;;;;;10302145;28;20253;-85
2022/12/15 07:52:12;;;;;;;137.60;72.77;;;-1.00;99.90;;;;;;10298641;28;20233;-85
2022/12/15 07:57:15;;;;;;;139.97;73.80;;;0.00;99.90;;;;;;10300493;28;20238;-85
2022/12/15 08:02:18;;;;;;;163.97;91.13;;;0.90;94.80;;;;;;10310948;28;20250;-85
2022/12/15 08:07:21;;;;;;;165.10;88.60;;;-0.30;83.70;;;;;;10316119;28;20250;-85
2022/12/15 08:12:23;;;;;;;168.97;91.57;;;-1.10;96.90;;;;;;10314370;28;20239;-85
2022/12/15 08:17:25;;;;;;;159.10;88.33;;;-2.80;97.00;;;;;;10296754;28;20293;-85
2022/12/15 08:22:28;;;;;;;171.77;92.67;;;-2.90;99.90;;;;;;10302708;28;20221;-84
2022/12/15 08:27:30;;;;;;;162.77;89.20;;;-2.70;99.90;;;;;;10327972;28;20312;-85
2022/12/15 08:32:33;;;;;;;166.13;89.13;;;-2.10;99.90;;;;;;10305958;28;20287;-85
2022/12/15 08:37:35;;;;;;;143.47;70.33;;;-1.30;99.90;;;;;;10300784;28;20256;-85
2022/12/15 08:42:45;;;;;;;134.80;71.80;;;-0.20;99.90;;;;;;10304499;28;20575;-85
2022/12/15 08:47:47;;;;;;;138.23;71.93;;;1.00;99.70;;;;;;10301237;28;20294;-85
2022/12/15 08:52:50;;;;;;;132.63;64.73;;;1.90;99.90;;;;;;10327123;28;20249;-92
2022/12/15 08:58:13;;;;;;;165.07;87.43;;;1.20;99.90;;;;;;10335794;28;20210;-93
2022/12/15 09:03:15;;;;;;;157.73;84.13;;;1.10;95.10;;;;;;10333714;28;20784;-92
2022/12/15 09:08:17;;;;;;;126.83;69.77;;;1.50;92.80;;;;;;10332388;28;20285;-93
2022/12/15 09:13:20;;;;;;;120.67;67.83;;;2.30;96.70;;;;;;10315834;28;20222;-93
2022/12/15 09:18:23;;;;;;;132.17;70.33;;;2.20;96.40;;;;;;10333587;28;20207;-91
2022/12/15 09:23:25;;;;;;;122.60;69.47;;;2.40;99.10;;;;;;10308906;28;20237;-90
2022/12/15 09:28:29;;;;;;;147.60;81.13;;;1.80;93.20;;;;;;10317365;28;20246;-91
2022/12/15 09:33:31;;;;;;;136.40;72.03;;;2.50;99.00;;;;;;10320775;28;20239;-90
2022/12/15 09:38:39;;;;;;;164.50;88.07;;;2.40;96.70;;;;;;10302901;28;20300;-93
2022/12/15 09:43:54;;;;;;;124.47;66.53;;;1.70;99.90;;;;;;10309287;28;20237;-93
2022/12/15 09:49:02;;;;;;;157.00;85.10;;;3.00;99.90;;;;;;10303884;28;20253;-93
2022/12/15 09:54:07;;;;;;;133.67;73.87;;;2.50;93.00;;;;;;10301068;28;20238;-93
2022/12/15 09:59:48;;;;;;;142.13;74.73;;;2.40;99.90;;;;;;10320807;28;20293;-93
2022/12/15 10:05:12;;;;;;;160.00;85.87;;;2.70;99.90;;;;;;10315106;28;20255;-93
2022/12/15 10:10:37;;;;;;;145.67;72.13;;;2.10;99.40;;;;;;10317314;28;20716;-93
2022/12/15 10:15:45;;;;;;;122.63;65.90;;;3.20;99.90;;;;;;10315737;28;20913;-93
2022/12/15 10:20:53;;;;;;;124.30;68.77;;;4.00;99.90;;;;;;10314249;28;20239;-93
2022/12/15 10:26:15;;;;;;;116.67;65.20;;;4.60;99.90;;;;;;10304903;28;21550;-92
2022/12/15 10:31:24;;;;;;;116.77;63.87;;;5.60;99.90;;;;;;10300110;28;20302;-93
2022/12/15 10:36:27;;;;;;;146.67;80.00;;;5.60;99.90;;;;;;10313979;28;20225;-92
2022/12/15 10:41:32;;;;;;;124.90;68.40;;;5.40;99.70;;;;;;10323200;28;20216;-91
2022/12/15 10:46:34;;;;;;;133.77;76.20;;;5.60;99.90;;;;;;10310303;28;20207;-93
2022/12/15 10:51:52;;;;;;;138.63;75.00;;;5.00;99.90;;;;;;10303199;28;20261;-93
2022/12/15 10:56:57;;;;;;;116.77;66.07;;;4.90;98.80;;;;;;10309056;28;20231;-93
2022/12/15 11:02:22;;;;;;;108.73;61.17;;;5.50;99.90;;;;;;10299859;28;20240;-91
2022/12/15 11:07:35;;;;;;;123.17;70.27;;;5.90;99.90;;;;;;10314560;28;20267;-94
2022/12/15 11:12:52;;;;;;;114.63;63.07;;;5.30;98.90;;;;;;10318927;28;20637;-93
2022/12/15 11:18:22;;;;;;;118.20;68.30;;;5.50;99.90;;;;;;10301672;28;20231;-94
2022/12/15 11:23:50;;;;;;;124.00;68.23;;;3.90;99.90;;;;;;10309650;28;20226;-93
2022/12/15 11:29:00;;;;;;;113.97;66.77;;;2.90;99.30;;;;;;10319955;28;20244;-93
2022/12/15 11:34:17;;;;;;;131.40;73.80;;;4.00;99.90;;;;;;10314033;28;20223;-93
2022/12/15 11:39:47;;;;;;;111.00;63.17;;;3.80;99.90;;;;;;10310828;28;20240;-95
2022/12/15 11:45:19;;;;;;;113.17;58.93;;;4.90;99.90;;;;;;10302557;28;20233;-94
2022/12/15 11:50:57;;;;;;;106.10;61.00;;;4.50;99.90;;;;;;10318001;28;20333;-94
2022/12/15 11:56:15;;;;;;;103.20;56.43;;;4.60;99.90;;;;;;10286151;28;20241;-93
2022/12/15 12:01:20;;;;;;;92.63;52.70;;;5.90;99.90;;;;;;10321660;28;20663;-89
2022/12/15 12:06:46;;;;;;;91.77;51.80;;;6.60;99.90;;;;;;10314647;28;20971;-92
2022/12/15 12:12:03;;;;;;;97.23;56.50;;;6.80;93.10;;;;;;10306611;28;20306;-92
2022/12/15 12:17:42;;;;;;;69.43;42.97;;;5.80;94.60;;;;;;10314490;28;20206;-92
2022/12/15 12:23:04;;;;;;;75.03;43.87;;;7.30;95.60;;;;;;10310474;28;20224;-92
2022/12/15 12:28:18;;;;;;;65.30;38.33;;;6.60;99.90;;;;;;10294165;28;20236;-92
2022/12/15 12:33:39;;;;;;;71.53;43.37;;;7.00;86.70;;;;;;10299860;28;20677;-92
2022/12/15 12:38:49;;;;;;;74.10;40.07;;;7.00;99.90;;;;;;10314228;28;20241;-92
2022/12/15 12:43:56;;;;;;;73.83;44.63;;;6.60;99.90;;;;;;10311127;28;20209;-93
2022/12/15 12:49:07;;;;;;;79.63;44.30;;;8.20;95.30;;;;;;10310432;28;20704;-92
2022/12/15 12:54:30;;;;;;;78.07;45.47;;;6.10;99.90;;;;;;10318964;28;20270;-93
2022/12/15 12:59:36;;;;;;;81.37;46.27;;;5.20;91.40;;;;;;10314967;28;20208;-93
2022/12/15 13:04:41;;;;;;;83.43;47.80;;;4.70;99.90;;;;;;10331385;28;20232;-86
2022/12/15 13:09:59;;;;;;;78.40;44.13;;;4.30;99.90;;;;;;10336702;28;20318;-83
2022/12/15 13:15:26;;;;;;;76.53;40.90;;;7.40;92.60;;;;;;10319148;28;20201;-83
2022/12/15 13:20:31;;;;;;;78.33;46.53;;;6.80;92.00;;;;;;10336957;28;20208;-84
2022/12/15 13:25:37;;;;;;;80.63;45.90;;;4.90;64.40;;;;;;10332920;28;20236;-83
2022/12/15 13:31:15;;;;;;;86.90;51.53;;;4.30;93.40;;;;;;10320933;28;20231;-83
2022/12/15 13:36:36;;;;;;;73.20;43.27;;;4.00;84.10;;;;;;10323402;28;20200;-93
2022/12/15 13:41:41;;;;;;;77.07;42.43;;;5.40;99.90;;;;;;10330066;28;20681;-84
2022/12/15 13:47:24;;;;;;;82.80;39.07;;;7.90;77.60;;;;;;10307659;28;20217;-84
2022/12/15 13:52:48;;;;;;;72.07;40.00;;;7.60;70.30;;;;;;10327664;28;20292;-84
2022/12/15 13:58:15;;;;;;;66.33;37.17;;;5.60;82.50;;;;;;10325962;28;20209;-84
2022/12/15 14:03:17;;;;;;;74.50;41.90;;;6.30;80.30;;;;;;10304637;28;20298;-85
2022/12/15 14:08:22;;;;;;;74.13;47.30;;;7.10;72.50;;;;;;10327397;28;20553;-84
2022/12/15 14:13:35;;;;;;;83.53;51.97;;;4.10;57.70;;;;;;10325094;28;20205;-84
2022/12/15 14:18:41;;;;;;;85.37;53.83;;;;;;;;;;10327796;28;20234;-84
2022/12/15 14:23:44;;;;;;;90.30;53.47;;;-1.10;99.90;;;;;;10308149;28;20201;-84
2022/12/15 14:29:09;;;;;;;81.47;48.27;;;-2.10;99.90;;;;;;10319572;28;20223;-84
2022/12/15 14:34:15;;;;;;;80.40;45.63;;;;;;;;;;10326959;28;20232;-85
2022/12/15 14:39:42;;;;;;;84.53;48.93;;;-2.80;99.90;;;;;;10332486;28;20638;-84
2022/12/15 14:44:45;;;;;;;96.57;53.50;;;-3.00;99.90;;;;;;10325210;28;20215;-84
2022/12/15 14:49:53;;;;;;;81.83;33.93;;;-3.30;99.90;;;;;;10297518;28;20228;-84
2022/12/15 14:55:00;;;;;;;72.97;36.57;;;-0.90;99.90;;;;;;10330948;28;20203;-84
2022/12/15 15:00:24;;;;;;;71.17;39.53;;;0.30;99.90;;;;;;10307818;28;20274;-85
2022/12/15 15:05:26;;;;;;;73.93;38.90;;;0.50;99.90;;;;;;10321378;28;20345;-83
2022/12/15 15:10:29;;;;;;;75.83;39.27;;;0.00;99.90;;;;;;10323791;28;20275;-83
2022/12/15 15:15:32;;;;;;;65.37;34.47;;;-0.20;99.90;;;;;;10301659;28;20210;-84
2022/12/15 15:20:34;;;;;;;59.47;36.80;;;0.30;99.90;;;;;;10327562;28;20641;-83
2022/12/15 15:25:40;;;;;;;77.87;44.60;;;1.20;99.90;;;;;;10323611;28;20213;-87
2022/12/15 15:30:54;;;;;;;81.00;46.40;;;1.00;99.90;;;;;;10306961;28;20647;-85
2022/12/15 15:36:03;;;;;;;86.23;47.60;;;0.50;99.90;;;;;;10326778;28;20197;-86
2022/12/15 15:41:28;;;;;;;60.10;36.83;;;0.60;99.90;;;;;;10323049;28;20206;-86
2022/12/15 15:46:34;;;;;;;75.90;44.93;;;0.90;99.90;;;;;;10354251;28;20205;-86
2022/12/15 15:51:37;;;;;;;68.20;41.63;;;0.30;99.90;;;;;;10354760;28;20233;-86
2022/12/15 15:56:40;;;;;;;62.23;38.10;;;0.10;99.90;;;;;;10340523;28;20271;-84
2022/12/15 16:01:45;;;;;;;58.93;38.03;;;-0.60;99.90;;;;;;10341876;28;20739;-86
2022/12/15 16:06:49;;;;;;;68.53;40.73;;;-0.50;99.90;;;;;;10341908;28;20630;-85
2022/12/15 16:11:51;;;;;;;56.77;35.07;;;-0.30;99.90;;;;;;10380919;28;20228;-85
2022/12/15 16:16:54;;;;;;;64.07;38.03;;;-0.10;99.90;;;;;;10381505;28;20268;-83
2022/12/15 16:21:56;;;;;;;69.60;40.53;;;0.70;99.90;;;;;;10363290;28;20190;-83
2022/12/15 16:27:01;;;;;;;77.00;43.37;;;-0.10;99.90;;;;;;10372832;28;20188;-82
2022/12/15 16:32:05;;;;;;;74.97;42.53;;;-0.30;99.90;;;;;;10388170;28;20392;-83
2022/12/15 16:37:27;;;;;;;56.13;35.57;;;-0.30;99.90;;;;;;10371405;28;20235;-83
2022/12/15 16:42:29;;;;;;;53.97;32.57;;;-0.40;99.90;;;;;;10371245;28;20181;-85
2022/12/15 16:47:32;;;;;;;51.73;30.67;;;0.10;99.90;;;;;;10388288;28;20217;-84
2022/12/15 16:52:34;;;;;;;47.07;30.83;;;1.30;99.90;;;;;;10375619;28;20208;-83
2022/12/15 16:57:37;;;;;;;55.57;34.23;;;1.60;99.90;;;;;;10387220;28;20217;-83
2022/12/15 17:02:40;;;;;;;52.50;32.83;;;1.10;99.90;;;;;;10386648;28;20218;-82
2022/12/15 17:07:56;;;;;;;56.80;33.87;;;1.20;99.90;;;;;;10386280;28;20199;-82
2022/12/15 17:13:15;;;;;;;49.47;32.53;;;0.30;99.90;;;;;;10355450;28;20217;-85
2022/12/15 17:18:18;;;;;;;56.67;36.93;;;0.20;99.90;;;;;;10387240;28;20178;-84
2022/12/15 17:23:22;;;;;;;56.20;35.70;;;-0.10;99.90;;;;;;10355466;28;20241;-83
2022/12/15 17:28:35;;;;;;;76.97;42.73;;;0.10;99.90;;;;;;10360631;28;20185;-83
2022/12/15 17:33:37;;;;;;;74.93;42.43;;;-0.40;99.90;;;;;;10387244;28;20232;-83
2022/12/15 17:38:40;;;;;;;73.60;45.30;;;-0.60;99.90;;;;;;10336388;28;20213;-83
2022/12/15 17:43:42;;;;;;;97.37;57.10;;;-0.80;99.90;;;;;;10353795;28;20189;-84
2022/12/15 17:48:45;;;;;;;63.10;38.37;;;-1.30;99.90;;;;;;10385896;28;20178;-84
2022/12/15 17:53:48;;;;;;;57.00;35.63;;;-1.90;99.90;;;;;;10387137;28;20191;-84
2022/12/15 17:58:53;;;;;;;56.90;38.67;;;-2.20;99.90;;;;;;10371896;28;20183;-84
2022/12/15 18:03:55;;;;;;;56.10;36.80;;;-2.50;99.90;;;;;;10367845;28;20222;-85
2022/12/15 18:08:58;;;;;;;61.40;41.30;;;-3.00;99.90;;;;;;10371242;28;20177;-84
2022/12/15 18:14:00;;;;;;;69.20;36.10;;;-3.50;99.90;;;;;;10383426;28;20331;-83
2022/12/15 18:19:02;;;;;;;66.37;37.07;;;-3.90;99.90;;;;;;10360077;28;20212;-84
2022/12/15 18:24:16;;;;;;;73.50;40.90;;;-4.10;99.90;;;;;;10362587;28;20176;-83
2022/12/15 18:29:18;;;;;;;61.87;36.13;;;-4.10;99.90;;;;;;10352616;28;20205;-84
2022/12/15 18:34:21;;;;;;;66.77;39.17;;;-2.90;99.90;;;;;;10383416;28;20178;-83
2022/12/15 18:39:23;;;;;;;62.63;35.77;;;-3.70;99.90;;;;;;10385175;28;20183;-82
2022/12/15 18:44:30;;;;;;;60.70;36.97;;;-4.30;99.90;;;;;;10385477;28;20187;-84
2022/12/15 18:49:32;;;;;;;92.17;45.50;;;-4.50;99.90;;;;;;10385968;28;20237;-83
2022/12/15 18:54:35;;;;;;;87.97;52.37;;;-4.70;99.90;;;;;;10342562;28;20190;-83
2022/12/15 18:59:37;;;;;;;90.47;50.67;;;-5.00;99.90;;;;;;10362750;28;20196;-83
2022/12/15 19:04:40;;;;;;;112.40;49.47;;;-4.90;99.90;;;;;;10384669;28;20197;-83
2022/12/15 19:09:42;;;;;;;108.30;52.77;;;-5.10;99.90;;;;;;10353691;28;20255;-82
2022/12/15 19:14:46;;;;;;;507.27;214.47;;;-5.50;99.90;;;;;;10323564;28;20228;-83
2022/12/15 19:25:22;;;;;;;882.77;432.17;;;-5.80;99.90;;;;;;10307831;28;20671;-84
2022/12/15 19:30:32;;;;;;;885.57;429.17;;;-5.80;99.90;;;;;;10305150;28;20229;-85
2022/12/15 19:35:46;;;;;;;870.90;413.77;;;-5.60;99.90;;;;;;10342684;28;20234;-84
2022/12/15 19:40:52;;;;;;;653.50;301.10;;;-5.90;99.90;;;;;;10345223;28;20214;-84
2022/12/15 19:45:55;;;;;;;476.00;197.67;;;-6.10;99.90;;;;;;10347718;28;20198;-84
2022/12/15 19:50:58;;;;;;;386.97;161.17;;;-6.00;99.90;;;;;;10325290;28;20223;-84
2022/12/15 19:56:00;;;;;;;151.37;75.07;;;-5.80;99.90;;;;;;10337126;28;20753;-84
2022/12/15 20:01:10;;;;;;;154.70;67.83;;;-5.40;99.90;;;;;;10348887;28;20202;-83
2022/12/15 20:06:25;;;;;;;134.73;63.17;;;-5.60;99.90;;;;;;10332826;28;20271;-84
2022/12/15 20:11:31;;;;;;;119.10;57.93;;;-5.70;99.90;;;;;;10351986;28;20222;-84
2022/12/15 20:16:33;;;;;;;129.33;59.93;;;-6.00;99.90;;;;;;10336994;28;20200;-84
2022/12/15 20:21:38;;;;;;;122.03;58.57;;;-6.20;99.90;;;;;;10340504;28;20222;-84
2022/12/15 20:26:42;;;;;;;123.57;57.80;;;-5.70;99.90;;;;;;10343816;28;20212;-84
2022/12/15 20:31:45;;;;;;;112.70;55.00;;;-5.60;99.90;;;;;;10326230;28;20268;-84
2022/12/15 20:36:48;;;;;;;113.17;62.87;;;-6.10;99.90;;;;;;10346148;28;20194;-83
2022/12/15 20:41:51;;;;;;;132.27;60.90;;;-6.60;99.90;;;;;;10323373;28;20216;-83
2022/12/15 20:46:54;;;;;;;124.23;61.40;;;-6.70;99.90;;;;;;10321919;28;20205;-83
2022/12/15 20:51:56;;;;;;;133.63;69.40;;;-6.70;99.90;;;;;;10338166;28;20225;-83
2022/12/15 20:56:59;;;;;;;145.03;71.97;;;-6.60;99.90;;;;;;10339180;28;20199;-83
2022/12/15 21:02:01;;;;;;;120.67;60.27;;;-6.90;99.90;;;;;;10338847;28;20283;-83
2022/12/15 21:07:04;;;;;;;132.80;68.87;;;-6.70;99.90;;;;;;10338276;28;20248;-83
2022/12/15 21:12:16;;;;;;;130.77;69.43;;;-6.40;99.90;;;;;;10338164;28;20218;-84
2022/12/15 21:17:26;;;;;;;146.33;76.57;;;-6.50;99.90;;;;;;10320314;28;20788;-83
2022/12/15 21:22:29;;;;;;;145.07;75.33;;;-6.80;99.90;;;;;;10280981;28;20192;-84
2022/12/15 21:27:32;;;;;;;151.37;75.97;;;-6.90;99.90;;;;;;10327710;28;20217;-85
2022/12/15 21:32:34;;;;;;;134.57;73.13;;;-6.90;99.90;;;;;;10337297;28;20282;-84
2022/12/15 21:37:36;;;;;;;128.00;68.57;;;-6.80;99.90;;;;;;10336881;28;20193;-85
2022/12/15 21:42:39;;;;;;;112.27;60.60;;;-6.80;99.90;;;;;;10351423;28;20224;-85
2022/12/15 21:53:05;;;;;;;111.97;60.77;;;-6.50;99.90;;;;;;10336470;28;20220;-85
2022/12/15 21:58:22;;;;;;;96.00;49.17;;;-6.80;99.90;;;;;;10321374;28;20201;-85
2022/12/15 22:03:25;;;;;;;100.23;53.43;;;-6.50;99.90;;;;;;10308354;28;20777;-85
2022/12/15 22:08:28;;;;;;;112.00;58.57;;;-6.10;99.90;;;;;;10316847;28;20194;-85
2022/12/15 22:13:31;;;;;;;106.50;55.50;;;-5.90;99.90;;;;;;10315201;28;20276;-83
2022/12/15 22:18:34;;;;;;;113.73;59.90;;;-6.00;99.90;;;;;;10330285;28;20203;-84
2022/12/15 22:23:37;;;;;;;118.97;65.07;;;-6.00;99.90;;;;;;10306536;28;20269;-84
2022/12/15 22:28:39;;;;;;;122.13;63.93;;;-6.00;99.90;;;;;;10314130;28;20230;-84
2022/12/15 22:33:42;;;;;;;116.53;61.77;;;-6.00;99.90;;;;;;10325794;28;20276;-83
2022/12/15 22:38:45;;;;;;;161.70;74.43;;;-5.40;99.90;;;;;;10312748;28;20225;-84
2022/12/15 22:43:53;;;;;;;159.77;72.90;;;-5.10;99.90;;;;;;10326690;28;20205;-85
2022/12/15 22:48:56;;;;;;;130.30;69.93;;;-6.00;99.90;;;;;;10328093;28;20293;-84
2022/12/15 22:53:59;;;;;;;137.20;70.27;;;-6.70;99.90;;;;;;10301121;28;20237;-85
2022/12/15 22:59:09;;;;;;;143.97;71.83;;;-6.80;99.90;;;;;;10309600;28;20236;-87
2022/12/15 23:04:11;;;;;;;156.50;75.57;;;-6.70;99.90;;;;;;10295485;28;20729;-87
2022/12/15 23:09:14;;;;;;;136.43;71.03;;;-7.70;99.90;;;;;;10310843;28;20294;-87
2022/12/15 23:14:17;;;;;;;129.23;68.70;;;-7.80;99.90;;;;;;10328616;28;20295;-87
2022/12/15 23:19:22;;;;;;;128.17;68.53;;;-7.50;99.90;;;;;;10327144;28;20232;-87
2022/12/15 23:24:26;;;;;;;136.07;74.13;;;-7.30;99.90;;;;;;10310183;28;20240;-87
2022/12/15 23:29:28;;;;;;;111.37;59.93;;;-6.70;99.90;;;;;;10305890;28;20281;-87
2022/12/15 23:34:31;;;;;;;118.77;63.13;;;-6.20;99.90;;;;;;10304630;28;20257;-86
2022/12/15 23:39:33;;;;;;;101.30;57.70;;;-6.60;99.90;;;;;;10327588;28;20238;-86
2022/12/15 23:44:36;;;;;;;118.10;65.17;;;-6.60;99.90;;;;;;10327753;28;20289;-86
2022/12/15 23:49:38;;;;;;;121.03;66.20;;;-6.40;99.90;;;;;;10310429;28;20740;-86
2022/12/15 23:54:41;;;;;;;109.97;62.63;;;-6.90;99.90;;;;;;10326787;28;20250;-87
2022/12/15 23:59:43;;;;;;;98.97;58.27;;;-7.40;99.90;;;;;;10327990;28;20260;-86
